メインページ
METAR-TAF:

METAR-TAF

空港 :

東京 / 羽田国際空港, 日本

東京国際空港

緯度: 35-33N, 経度: 139-47E, 海抜: 5m

現時点の気象観測

当レポートは22分前の06:00(UTC)に作成
の風 12kt
気温 10°C
湿度 34%
気圧 1020 hPa
視程10km以上
高度3000ftの雲はほとんどない

METAR: RJTT 140600Z 35012KT 9999 FEW030 10/M05 Q1020 NOSIG RMK 1CU030 A3015

時間: 15:22 (06:22 UTC)

予報

当レポートは1時間15分前の05:07(UTC)に作成
予報は14日の 06時(UTC)から 15日の 12時(UTC)まで有効
北/北西の風 14kt
視程10km以上
高度3000ftの雲はほとんどない
15日の 03時(UTC)から 15日の 06時(UTC)まで徐々に
の風 5kt

TAF: RJTT 140507Z 1406/1512 34014KT 9999 FEW030 BECMG 1503/1506 10005KT

4,000以上の空港の気象観測と天気予報(METAR報とTAF報)

利用可能な観測所は地図上に黄色い丸と赤い丸で示す。

丸の上にカーソルを重ねると観測所名を参照できる。

次にクリックすると気象観測と天気予報を参照できる。

マップの切り替え:黒色「×」印の緑ボタンをクリックして拡大、「-」印の緑ボタンをクリックして縮小、緑色の三角印をクリックして隣りの地図に切り替え


METAR-TAF: